Search for airport 
image banner adimage banner adimage banner ad
image banner ad

83IA - Keokuk County Health Center

Located in Sigourney, United States

ICAO - 83IA, IATA -

Data provided by Airmate  

General information

Coordinates: N41°19'21" W92°12'24"
Elevation is 753 feet MSL.
 
View others Airports in Iowa

Operational data

Special qualification required
Current time UTC:
Current local time:
Weather at : KOOA - Oskaloosa Muni ( 26 km )
METAR: KOOA 181655Z AUTO 04007KT 7SM +RA CLR 28/22 A2982 RMK AO2 T02840221
View NOTAMs / SUP AIP / TFR affecting this airport [VIEW]
Communications frequencies: [VIEW]

Runways:

Airport contact information

Address: Sigourney United States

Satellite view of 83IA